Time;durP1;ratioP1;P1;durP2;ratioP2;P2;SDS_P1;SDS_P2;PMS_P1;PMS_P2;Temp;Humidity;BMP_temperature;BMP_pressure;BME280_temperature;BME280_humidity;BME280_pressure;Samples;Min_cycle;Max_cycle;Signal;HPM_P1;HPM_P2
2022/09/15 00:01:19;;;;;;;5.50;3.50;;;19.70;91.10;;;;;;5041244;28;20637;-72
2022/09/15 00:03:45;;;;;;;7.60;3.70;;;19.60;91.00;;;;;;5040448;28;20753;-71
2022/09/15 00:06:11;;;;;;;5.73;2.70;;;19.70;91.00;;;;;;5048605;28;20181;-74
2022/09/15 00:08:37;;;;;;;4.73;2.83;;;19.70;91.10;;;;;;5039027;28;20213;-72
2022/09/15 00:11:16;;;;;;;7.03;2.73;;;19.70;90.80;;;;;;5045896;28;20423;-70
2022/09/15 00:13:41;;;;;;;5.83;2.97;;;19.70;90.70;;;;;;5039836;28;20435;-73
2022/09/15 00:16:09;;;;;;;4.53;2.97;;;19.80;90.80;;;;;;5044433;28;20988;-73
2022/09/15 00:18:35;;;;;;;8.13;2.87;;;19.80;90.80;;;;;;5039957;28;20444;-75
2022/09/15 00:21:12;;;;;;;4.33;2.67;;;19.80;90.70;;;;;;5047714;28;20427;-73
2022/09/15 00:23:37;;;;;;;5.67;3.50;;;19.70;90.50;;;;;;5039092;28;20551;-75
2022/09/15 00:26:07;;;;;;;6.70;3.03;;;19.80;90.40;;;;;;5048931;28;20857;-73
2022/09/15 00:28:33;;;;;;;5.50;2.67;;;19.80;90.20;;;;;;5034462;28;20181;-74
2022/09/15 00:30:58;;;;;;;4.20;2.60;;;19.70;90.10;;;;;;5044064;28;20424;-70
2022/09/15 00:33:24;;;;;;;4.50;2.53;;;19.70;90.10;;;;;;5034459;28;20178;-72
2022/09/15 00:35:52;;;;;;;6.93;3.63;;;19.70;90.00;;;;;;5042162;28;20541;-72
2022/09/15 00:38:19;;;;;;;5.57;2.30;;;19.70;89.90;;;;;;5040073;28;20187;-72
2022/09/15 00:40:53;;;;;;;4.40;2.47;;;19.70;89.30;;;;;;5049508;28;20919;-73
2022/09/15 00:43:41;;;;;;;3.73;2.30;;;19.70;89.20;;;;;;5038672;28;20896;-74
2022/09/15 00:46:07;;;;;;;4.40;2.47;;;19.70;88.70;;;;;;5013147;28;20426;-71
2022/09/15 00:48:33;;;;;;;2.30;1.70;;;19.70;88.30;;;;;;5039848;28;20435;-73
2022/09/15 00:51:00;;;;;;;2.93;2.00;;;19.80;88.00;;;;;;5040748;28;20443;-74
2022/09/15 00:53:26;;;;;;;2.77;1.90;;;19.80;87.80;;;;;;5046731;28;20813;-71
2022/09/15 00:55:53;;;;;;;2.67;1.60;;;19.80;87.80;;;;;;5036030;28;20436;-70
2022/09/15 00:58:32;;;;;;;4.37;1.90;;;19.80;87.80;;;;;;5046518;28;20407;-73
2022/09/15 01:01:00;;;;;;;6.23;2.37;;;19.90;87.60;;;;;;5040173;28;20416;-72
2022/09/15 01:03:29;;;;;;;4.90;2.17;;;19.90;87.70;;;;;;5045251;28;20415;-71
2022/09/15 01:06:00;;;;;;;3.07;1.77;;;19.90;87.80;;;;;;5048869;28;20436;-72
2022/09/15 01:08:33;;;;;;;3.23;2.07;;;19.90;87.80;;;;;;5048279;28;20955;-72
2022/09/15 01:11:00;;;;;;;4.97;2.23;;;19.90;87.80;;;;;;5043304;28;20968;-72
2022/09/15 01:13:25;;;;;;;4.50;2.13;;;19.80;88.00;;;;;;5050726;28;20507;-71
2022/09/15 01:16:15;;;;;;;3.43;2.00;;;19.80;88.30;;;;;;5046747;28;20456;-74
2022/09/15 01:19:14;;;;;;;3.10;2.00;;;19.80;88.40;;;;;;5045807;28;20469;-72
2022/09/15 01:21:52;;;;;;;4.70;2.03;;;19.60;89.20;;;;;;5037114;28;20530;-71
2022/09/15 01:24:36;;;;;;;4.90;2.10;;;19.60;89.50;;;;;;5039669;28;20479;-73
2022/09/15 01:27:13;;;;;;;4.50;2.57;;;19.60;89.50;;;;;;5044859;28;20514;-71
2022/09/15 01:30:02;;;;;;;5.87;2.73;;;19.60;89.60;;;;;;5033295;28;20470;-71
2022/09/15 01:33:05;;;;;;;3.10;2.53;;;19.60;89.60;;;;;;5039273;28;20411;-73
2022/09/15 01:35:59;;;;;;;4.03;2.43;;;19.60;89.70;;;;;;5041864;28;20866;-72
2022/09/15 01:38:46;;;;;;;3.97;2.00;;;19.60;89.90;;;;;;5033903;28;20422;-74
2022/09/15 01:41:26;;;;;;;3.23;2.10;;;19.60;89.70;;;;;;5037110;28;20426;-73
2022/09/15 01:44:28;;;;;;;6.33;2.57;;;19.60;89.60;;;;;;5034288;28;20560;-73
2022/09/15 01:47:01;;;;;;;5.13;2.60;;;19.50;89.70;;;;;;5040136;28;20432;-72
2022/09/15 01:49:37;;;;;;;4.87;2.23;;;19.50;89.60;;;;;;5038874;28;20455;-73
2022/09/15 01:52:02;;;;;;;4.17;2.40;;;19.50;89.70;;;;;;5040438;28;20940;-73
2022/09/15 01:54:33;;;;;;;3.40;2.40;;;19.50;89.90;;;;;;5040729;28;20457;-73
2022/09/15 01:57:01;;;;;;;3.27;2.33;;;19.40;89.90;;;;;;5042011;28;20196;-74
2022/09/15 01:59:27;;;;;;;4.30;2.23;;;19.40;89.70;;;;;;5039202;28;20422;-73
2022/09/15 02:02:04;;;;;;;8.17;2.40;;;19.40;89.60;;;;;;5041832;28;21260;-73
2022/09/15 02:04:37;;;;;;;6.27;2.63;;;19.40;89.60;;;;;;5041161;28;21015;-72
2022/09/15 02:07:22;;;;;;;2.67;2.00;;;19.40;89.50;;;;;;5044157;28;20425;-73
2022/09/15 02:09:57;;;;;;;3.10;2.40;;;19.30;89.20;;;;;;5041335;28;20769;-73
2022/09/15 02:13:07;;;;;;;5.60;2.53;;;19.30;89.00;;;;;;5041877;28;20541;-73
2022/09/15 02:15:45;;;;;;;7.90;2.63;;;19.30;88.90;;;;;;5020689;28;20454;-70
2022/09/15 02:18:14;;;;;;;3.67;2.07;;;19.30;88.70;;;;;;5040031;28;20441;-72
2022/09/15 02:20:51;;;;;;;6.73;2.17;;;19.30;88.40;;;;;;5035919;28;20421;-71
2022/09/15 02:23:28;;;;;;;3.93;2.17;;;19.40;88.30;;;;;;5039211;28;20498;-71
2022/09/15 02:26:03;;;;;;;5.53;2.27;;;19.30;88.10;;;;;;5040331;28;20442;-74
2022/09/15 02:28:33;;;;;;;3.50;2.07;;;19.40;88.10;;;;;;5040955;28;21153;-71
2022/09/15 02:31:02;;;;;;;2.47;2.00;;;19.40;88.00;;;;;;5038053;28;20423;-71
2022/09/15 02:33:34;;;;;;;3.33;2.03;;;19.40;88.00;;;;;;5039800;28;20412;-71
2022/09/15 02:36:00;;;;;;;5.30;2.53;;;19.40;88.10;;;;;;5040440;28;20433;-71
2022/09/15 02:38:32;;;;;;;3.73;2.23;;;19.40;88.00;;;;;;5040779;28;20421;-72
2022/09/15 02:40:58;;;;;;;5.30;2.00;;;19.30;88.40;;;;;;5036407;28;20436;-71
2022/09/15 02:43:23;;;;;;;10.83;2.20;;;19.30;88.40;;;;;;5037108;28;20481;-72
2022/09/15 02:45:49;;;;;;;3.67;2.17;;;19.30;88.40;;;;;;5037315;28;20243;-70
2022/09/15 02:48:15;;;;;;;6.30;2.17;;;19.30;88.30;;;;;;5041787;28;20695;-72
2022/09/15 02:50:40;;;;;;;6.60;2.50;;;19.30;88.40;;;;;;5041094;28;20185;-72
2022/09/15 02:53:07;;;;;;;2.17;1.70;;;19.30;88.30;;;;;;5044745;28;20737;-73
2022/09/15 02:55:33;;;;;;;2.77;1.90;;;19.30;88.40;;;;;;5040046;28;20222;-69
2022/09/15 02:57:59;;;;;;;4.53;2.23;;;19.30;88.40;;;;;;5043039;28;20486;-71
2022/09/15 03:00:27;;;;;;;3.23;1.70;;;19.20;88.70;;;;;;5048971;28;20429;-73
2022/09/15 03:02:54;;;;;;;3.70;2.37;;;19.20;88.90;;;;;;5036941;28;20196;-73
2022/09/15 03:05:25;;;;;;;2.67;1.87;;;19.20;89.00;;;;;;5040374;28;20479;-73
2022/09/15 03:07:51;;;;;;;8.23;1.90;;;19.10;89.30;;;;;;5035655;28;20927;-71
2022/09/15 03:10:17;;;;;;;4.00;2.13;;;19.10;89.30;;;;;;5038724;28;20422;-72
2022/09/15 03:12:53;;;;;;;3.47;1.90;;;19.20;89.20;;;;;;5034656;28;20426;-72
2022/09/15 03:15:22;;;;;;;4.87;2.23;;;19.10;89.30;;;;;;5040818;28;20202;-71
2022/09/15 03:17:48;;;;;;;3.03;2.07;;;19.10;89.30;;;;;;5036193;28;20435;-74
2022/09/15 03:20:18;;;;;;;5.20;2.00;;;19.10;89.50;;;;;;5043267;28;20841;-74
2022/09/15 03:22:43;;;;;;;3.70;1.80;;;19.00;89.50;;;;;;5038590;28;20554;-72
2022/09/15 03:25:10;;;;;;;2.80;1.87;;;19.00;89.50;;;;;;5043198;28;20568;-72
2022/09/15 03:27:35;;;;;;;2.83;2.00;;;19.00;89.60;;;;;;5041185;28;20195;-74
2022/09/15 03:30:03;;;;;;;2.60;1.80;;;19.00;89.50;;;;;;5044003;28;20416;-71
2022/09/15 03:32:28;;;;;;;3.03;1.80;;;19.00;89.50;;;;;;5043193;28;20444;-74
2022/09/15 03:34:54;;;;;;;3.70;2.10;;;19.00;89.50;;;;;;5040649;28;20558;-74
2022/09/15 03:37:20;;;;;;;2.60;1.77;;;19.00;89.60;;;;;;5043689;28;20219;-72
2022/09/15 03:39:46;;;;;;;4.07;1.93;;;19.00;89.60;;;;;;5045238;28;20208;-71
2022/09/15 03:42:13;;;;;;;4.10;1.87;;;19.00;89.70;;;;;;5045838;28;20211;-70
2022/09/15 03:44:38;;;;;;;3.97;1.90;;;18.90;89.70;;;;;;5044115;28;20872;-73
2022/09/15 03:47:04;;;;;;;4.43;2.10;;;18.90;89.90;;;;;;5048210;28;20423;-74
2022/09/15 03:49:29;;;;;;;4.43;1.70;;;19.00;89.70;;;;;;5042303;28;20292;-74
2022/09/15 03:51:57;;;;;;;3.43;2.00;;;18.90;89.60;;;;;;5047618;28;20582;-72
2022/09/15 03:54:23;;;;;;;3.20;2.07;;;18.90;89.70;;;;;;5040445;28;20267;-71
2022/09/15 03:56:50;;;;;;;5.30;2.40;;;18.90;89.90;;;;;;5045803;28;20445;-71
2022/09/15 03:59:17;;;;;;;3.17;2.27;;;18.80;90.00;;;;;;5037497;28;20435;-73
2022/09/15 04:01:44;;;;;;;6.50;1.80;;;18.80;90.20;;;;;;5043995;28;20424;-71
2022/09/15 04:04:10;;;;;;;3.63;1.80;;;18.80;90.30;;;;;;5039994;28;20870;-72
2022/09/15 04:06:36;;;;;;;3.93;2.00;;;18.80;90.30;;;;;;5045212;28;20924;-71
2022/09/15 04:09:02;;;;;;;3.00;1.70;;;18.80;90.30;;;;;;5042361;28;20430;-73
2022/09/15 04:11:28;;;;;;;3.87;2.00;;;18.80;90.30;;;;;;5043526;28;20188;-72
2022/09/15 04:13:54;;;;;;;2.90;2.30;;;18.70;90.50;;;;;;5038387;28;20466;-72
2022/09/15 04:16:22;;;;;;;4.47;1.83;;;18.70;90.50;;;;;;5043749;28;20599;-72
2022/09/15 04:18:49;;;;;;;3.00;1.77;;;18.70;90.40;;;;;;5037932;28;20298;-72
2022/09/15 04:21:17;;;;;;;4.07;2.23;;;18.70;90.50;;;;;;5044549;28;20424;-74
2022/09/15 04:23:43;;;;;;;4.93;1.80;;;18.70;90.60;;;;;;5037057;28;20465;-73
2022/09/15 04:26:32;;;;;;;7.33;2.27;;;18.70;90.60;;;;;;5047422;28;20417;-73
2022/09/15 04:29:01;;;;;;;3.03;1.83;;;18.70;90.70;;;;;;5050714;28;20457;-72
2022/09/15 04:31:26;;;;;;;2.97;1.83;;;18.70;90.60;;;;;;5042493;28;20479;-73
2022/09/15 04:33:54;;;;;;;2.73;1.93;;;18.70;90.60;;;;;;5045191;28;20478;-71
2022/09/15 04:36:22;;;;;;;3.83;1.87;;;18.70;90.60;;;;;;5046510;28;20239;-73
2022/09/15 04:38:51;;;;;;;2.90;1.77;;;18.70;90.60;;;;;;5044453;28;20449;-71
2022/09/15 04:41:18;;;;;;;3.13;2.10;;;18.70;90.50;;;;;;5037356;28;20464;-73
2022/09/15 04:43:44;;;;;;;2.60;1.83;;;18.70;90.50;;;;;;5044109;28;20506;-73
2022/09/15 04:46:11;;;;;;;2.93;1.77;;;18.70;90.30;;;;;;5047073;28;20420;-71
2022/09/15 04:48:37;;;;;;;7.10;2.10;;;18.70;90.40;;;;;;5042520;28;20476;-72
2022/09/15 04:51:05;;;;;;;2.40;1.80;;;18.70;90.30;;;;;;5036553;28;21182;-74
2022/09/15 04:53:31;;;;;;;5.63;1.90;;;18.70;90.10;;;;;;5041555;28;20189;-72
2022/09/15 04:56:06;;;;;;;1.87;1.70;;;18.70;90.00;;;;;;5059294;28;20453;-74
2022/09/15 04:58:40;;;;;;;3.17;1.90;;;18.70;89.90;;;;;;5042170;28;20190;-72
2022/09/15 05:01:14;;;;;;;3.73;2.10;;;18.70;89.70;;;;;;5038442;28;20822;-72
2022/09/15 05:03:40;;;;;;;2.70;1.77;;;18.70;89.70;;;;;;5041721;28;20473;-72
2022/09/15 05:06:08;;;;;;;3.63;1.83;;;18.70;89.70;;;;;;5041069;28;20974;-70
2022/09/15 05:08:34;;;;;;;4.47;1.80;;;18.70;89.60;;;;;;5042311;28;20421;-71
2022/09/15 05:11:01;;;;;;;4.20;2.00;;;18.70;89.60;;;;;;5043039;28;20475;-71
2022/09/15 05:13:27;;;;;;;3.47;2.00;;;18.70;89.60;;;;;;5043744;28;20188;-70
2022/09/15 05:15:52;;;;;;;2.37;1.57;;;18.70;89.60;;;;;;5042588;28;20515;-69
2022/09/15 05:18:18;;;;;;;2.33;2.20;;;18.70;89.30;;;;;;5041535;28;20195;-70
2022/09/15 05:20:43;;;;;;;4.10;1.77;;;18.70;89.30;;;;;;5043723;28;20207;-70
2022/09/15 05:23:09;;;;;;;3.47;1.93;;;18.70;89.60;;;;;;5045872;28;20203;-73
2022/09/15 05:25:35;;;;;;;5.50;1.73;;;18.70;89.90;;;;;;5047811;28;20227;-71
2022/09/15 05:28:02;;;;;;;7.63;1.90;;;18.60;90.10;;;;;;5049871;28;20321;-72
2022/09/15 05:30:27;;;;;;;2.80;1.80;;;18.60;90.30;;;;;;5046424;28;20831;-70
2022/09/15 05:32:53;;;;;;;3.83;1.90;;;18.60;90.20;;;;;;5035470;28;20222;-69
2022/09/15 05:35:18;;;;;;;2.30;1.63;;;18.60;90.20;;;;;;5042042;28;20276;-71
2022/09/15 05:37:44;;;;;;;2.43;1.60;;;18.70;90.00;;;;;;5035521;28;20635;-72
2022/09/15 05:40:10;;;;;;;4.80;1.70;;;18.70;90.10;;;;;;5045933;28;20917;-72
2022/09/15 05:42:35;;;;;;;3.40;1.70;;;18.80;89.60;;;;;;5033937;28;20190;-72
2022/09/15 05:45:01;;;;;;;3.37;1.60;;;18.80;89.30;;;;;;5046900;28;20219;-72
2022/09/15 05:47:26;;;;;;;2.07;1.67;;;18.80;89.30;;;;;;5038742;28;20183;-72
2022/09/15 05:49:52;;;;;;;3.07;1.60;;;18.80;89.30;;;;;;5042757;28;20300;-73
2022/09/15 05:52:18;;;;;;;3.13;1.87;;;18.80;89.30;;;;;;5036513;28;20617;-73
2022/09/15 05:54:43;;;;;;;2.40;1.57;;;18.80;89.30;;;;;;5044408;28;20560;-73
2022/09/15 05:57:09;;;;;;;3.80;1.50;;;18.90;89.00;;;;;;5046903;28;20221;-74
2022/09/15 05:59:37;;;;;;;2.17;1.30;;;18.80;88.90;;;;;;5052671;28;20186;-73
2022/09/15 06:02:03;;;;;;;2.70;1.50;;;18.80;89.00;;;;;;5047045;28;20277;-73
2022/09/15 06:04:28;;;;;;;1.67;1.40;;;18.80;88.90;;;;;;5038801;28;20571;-72
2022/09/15 06:06:54;;;;;;;2.00;1.40;;;18.90;88.90;;;;;;5039975;28;20216;-73
2022/09/15 06:09:19;;;;;;;1.33;1.20;;;18.90;88.70;;;;;;5041269;28;20186;-72
2022/09/15 06:11:45;;;;;;;5.67;2.57;;;18.90;88.60;;;;;;5039973;28;20260;-71
2022/09/15 06:14:12;;;;;;;2.73;1.70;;;18.90;88.90;;;;;;5042961;28;20687;-72
2022/09/15 06:16:37;;;;;;;2.27;1.50;;;19.00;88.60;;;;;;5039291;28;20218;-73
2022/09/15 06:19:04;;;;;;;2.60;1.33;;;19.10;88.10;;;;;;5042452;28;20956;-72
2022/09/15 06:21:30;;;;;;;3.70;1.67;;;19.10;88.00;;;;;;5047739;28;20215;-72
2022/09/15 06:23:59;;;;;;;2.93;1.43;;;19.10;87.80;;;;;;5038756;28;20491;-73
2022/09/15 06:26:25;;;;;;;4.97;1.67;;;19.00;88.10;;;;;;5041380;28;20793;-71
2022/09/15 06:28:53;;;;;;;1.97;1.30;;;19.10;88.10;;;;;;5046629;28;20790;-73
2022/09/15 06:31:20;;;;;;;2.47;1.50;;;19.10;88.00;;;;;;5046904;28;20465;-73
2022/09/15 06:33:49;;;;;;;3.00;1.60;;;19.10;88.10;;;;;;5037407;28;20458;-72
2022/09/15 06:36:16;;;;;;;1.70;1.17;;;19.10;88.30;;;;;;5044315;28;20781;-74
2022/09/15 06:38:42;;;;;;;3.63;1.20;;;19.10;88.30;;;;;;5040307;28;20427;-73
2022/09/15 06:41:08;;;;;;;3.47;1.53;;;19.10;88.60;;;;;;5041986;28;20484;-73
2022/09/15 06:43:35;;;;;;;2.20;1.30;;;18.90;90.30;;;;;;5034007;28;20429;-72
2022/09/15 06:46:12;;;;;;;2.13;1.37;;;18.70;91.30;;;;;;5044863;28;20204;-72
2022/09/15 06:48:38;;;;;;;5.53;2.10;;;18.40;92.10;;;;;;5035721;28;20433;-75
2022/09/15 06:51:06;;;;;;;3.40;1.67;;;18.30;92.80;;;;;;5041924;28;20439;-71
2022/09/15 06:53:34;;;;;;;2.40;1.63;;;18.20;93.50;;;;;;5042448;28;20436;-71
2022/09/15 06:56:05;;;;;;;2.10;1.50;;;18.00;94.10;;;;;;5048227;28;20442;-71
2022/09/15 06:58:33;;;;;;;2.37;1.90;;;17.90;94.60;;;;;;5042402;28;20427;-70
2022/09/15 07:01:04;;;;;;;3.00;1.97;;;17.80;95.00;;;;;;5046054;28;20805;-71
2022/09/15 07:03:30;;;;;;;2.40;1.77;;;17.80;95.30;;;;;;5051961;28;20425;-72
2022/09/15 07:05:56;;;;;;;4.10;2.50;;;17.80;95.70;;;;;;5046771;28;20443;-69
2022/09/15 07:08:21;;;;;;;3.37;1.73;;;17.70;95.90;;;;;;5048912;28;20458;-72
2022/09/15 07:10:47;;;;;;;5.23;2.00;;;17.70;96.10;;;;;;5062503;28;20177;-70
2022/09/15 07:13:12;;;;;;;2.90;1.90;;;17.70;96.30;;;;;;5051480;28;20180;-71
2022/09/15 07:15:38;;;;;;;3.40;2.20;;;17.70;96.50;;;;;;5049833;28;20209;-70
2022/09/15 07:18:05;;;;;;;3.40;2.23;;;17.70;96.60;;;;;;5054162;28;20209;-69
2022/09/15 07:20:31;;;;;;;4.00;2.23;;;17.60;96.90;;;;;;5046147;28;20193;-69
2022/09/15 07:22:57;;;;;;;4.47;1.87;;;17.70;97.00;;;;;;5047682;28;20586;-71
2022/09/15 07:25:22;;;;;;;3.67;1.90;;;17.70;97.10;;;;;;5043180;28;21425;-70
2022/09/15 07:27:48;;;;;;;4.20;1.87;;;17.70;97.10;;;;;;5046254;28;20689;-71
2022/09/15 07:30:13;;;;;;;3.90;2.23;;;17.70;97.20;;;;;;5045993;28;20181;-70
2022/09/15 07:32:39;;;;;;;3.10;2.10;;;17.70;97.20;;;;;;5054183;28;20376;-70
2022/09/15 07:35:06;;;;;;;5.17;1.90;;;17.70;97.00;;;;;;5043390;28;20208;-71
2022/09/15 07:37:32;;;;;;;3.63;2.23;;;17.70;97.20;;;;;;5051410;28;20413;-70
2022/09/15 07:39:57;;;;;;;3.57;1.87;;;17.70;97.30;;;;;;5049374;28;20415;-72
2022/09/15 07:42:24;;;;;;;3.00;2.07;;;17.70;97.20;;;;;;5053027;28;20490;-70
2022/09/15 07:44:50;;;;;;;4.10;1.67;;;17.80;97.10;;;;;;5047742;28;20223;-70
2022/09/15 07:47:16;;;;;;;4.90;1.80;;;17.70;97.00;;;;;;5048885;28;20444;-70
2022/09/15 07:49:42;;;;;;;5.60;1.87;;;17.70;96.90;;;;;;5040243;28;20273;-71
2022/09/15 07:52:08;;;;;;;2.60;1.77;;;17.70;96.90;;;;;;5050001;28;20189;-71
2022/09/15 07:54:34;;;;;;;3.83;1.70;;;17.70;97.00;;;;;;5046866;28;20454;-72
2022/09/15 07:57:00;;;;;;;2.53;1.43;;;17.70;97.00;;;;;;5050459;28;20777;-70
2022/09/15 07:59:26;;;;;;;3.30;1.60;;;17.70;97.00;;;;;;5053291;28;20269;-70
2022/09/15 08:01:51;;;;;;;1.57;1.30;;;17.70;97.10;;;;;;5044842;28;20204;-70
2022/09/15 08:04:17;;;;;;;5.30;1.60;;;17.60;97.20;;;;;;5037563;28;20223;-70
2022/09/15 08:06:43;;;;;;;2.70;1.40;;;17.60;97.20;;;;;;5045585;28;20189;-70
2022/09/15 08:09:13;;;;;;;1.93;1.37;;;17.50;97.40;;;;;;5038577;28;20180;-70
2022/09/15 08:11:40;;;;;;;3.67;1.73;;;17.50;97.60;;;;;;5044547;28;20423;-71
2022/09/15 08:14:05;;;;;;;2.07;1.60;;;17.40;97.70;;;;;;5038108;28;20455;-71
2022/09/15 08:16:31;;;;;;;3.73;1.73;;;17.40;98.00;;;;;;5046992;28;20435;-71
2022/09/15 08:18:56;;;;;;;2.47;1.80;;;17.40;98.10;;;;;;5043311;28;20212;-71
2022/09/15 08:21:22;;;;;;;3.43;1.63;;;17.40;98.20;;;;;;5042659;28;20529;-71
2022/09/15 08:23:57;;;;;;;3.40;1.60;;;17.40;98.40;;;;;;5043725;28;20631;-73
2022/09/15 08:26:24;;;;;;;2.70;1.53;;;17.40;98.40;;;;;;5040515;28;20541;-73
2022/09/15 08:28:49;;;;;;;5.10;1.90;;;17.40;98.40;;;;;;5044856;28;20459;-71
2022/09/15 08:31:15;;;;;;;2.30;1.87;;;17.40;98.40;;;;;;5043502;28;20453;-70
2022/09/15 08:33:41;;;;;;;2.53;1.70;;;17.40;98.50;;;;;;5044258;28;20574;-73
2022/09/15 08:36:12;;;;;;;2.23;1.30;;;17.50;98.60;;;;;;5039793;28;20416;-71
2022/09/15 08:38:39;;;;;;;3.67;2.17;;;17.40;98.50;;;;;;5044531;28;20962;-70
2022/09/15 08:41:12;;;;;;;5.30;2.13;;;17.50;98.50;;;;;;5036118;28;20450;-72
2022/09/15 08:43:58;;;;;;;2.80;1.87;;;17.50;98.50;;;;;;5047678;28;20427;-73
2022/09/15 08:46:32;;;;;;;2.23;1.70;;;17.50;98.50;;;;;;5049617;28;20459;-71
2022/09/15 08:49:06;;;;;;;3.33;1.97;;;17.60;98.30;;;;;;5049541;28;20442;-72
2022/09/15 08:51:43;;;;;;;1.83;1.50;;;17.60;98.00;;;;;;5048659;28;20423;-71
2022/09/15 08:54:22;;;;;;;2.83;1.63;;;17.70;97.90;;;;;;5043944;28;20490;-70
2022/09/15 08:56:48;;;;;;;2.67;1.40;;;17.80;97.70;;;;;;5050975;28;20414;-71
2022/09/15 08:59:19;;;;;;;3.13;1.70;;;17.80;97.30;;;;;;5040314;28;20558;-72
2022/09/15 09:02:02;;;;;;;3.37;2.00;;;18.00;97.20;;;;;;5042174;28;20455;-72
2022/09/15 09:04:30;;;;;;;3.00;1.90;;;18.10;97.20;;;;;;5052774;28;20472;-72
2022/09/15 09:07:13;;;;;;;3.07;2.03;;;18.30;96.90;;;;;;5046149;28;20424;-73
2022/09/15 09:09:55;;;;;;;2.87;1.70;;;18.50;96.10;;;;;;5037914;28;20488;-73
2022/09/15 09:12:35;;;;;;;4.57;2.00;;;18.50;95.60;;;;;;5039851;28;20441;-71
2022/09/15 09:15:07;;;;;;;2.67;1.60;;;18.70;95.30;;;;;;5037969;28;20517;-72
2022/09/15 09:17:41;;;;;;;3.13;2.17;;;18.70;95.10;;;;;;5042504;28;20455;-73
2022/09/15 09:20:32;;;;;;;3.13;2.10;;;18.80;95.10;;;;;;5048654;28;20439;-71
2022/09/15 09:23:00;;;;;;;3.17;1.80;;;18.80;94.90;;;;;;5044383;28;20415;-72
2022/09/15 09:25:26;;;;;;;2.80;1.57;;;18.80;94.70;;;;;;5046906;28;20483;-73
2022/09/15 09:27:53;;;;;;;1.80;1.67;;;18.80;94.70;;;;;;5051608;28;20425;-72
2022/09/15 09:30:21;;;;;;;2.83;2.00;;;18.90;94.60;;;;;;5044978;28;20174;-74
2022/09/15 09:32:49;;;;;;;2.30;1.63;;;19.00;94.40;;;;;;5055330;28;20970;-73
2022/09/15 09:35:23;;;;;;;1.90;1.40;;;19.00;94.00;;;;;;5053060;28;20459;-73
2022/09/15 09:37:51;;;;;;;2.40;1.90;;;19.00;93.80;;;;;;5048150;28;20455;-74
2022/09/15 09:40:18;;;;;;;3.57;1.87;;;19.10;93.50;;;;;;5048796;28;20419;-73
2022/09/15 09:42:44;;;;;;;1.97;1.60;;;19.10;93.60;;;;;;5043538;28;20437;-75
2022/09/15 09:45:15;;;;;;;2.67;1.43;;;18.90;94.10;;;;;;5048843;28;21012;-73
2022/09/15 09:47:41;;;;;;;4.17;1.87;;;18.90;94.10;;;;;;5044895;28;20951;-73
2022/09/15 09:50:37;;;;;;;3.63;1.53;;;18.80;93.70;;;;;;5045262;28;20451;-74
2022/09/15 09:53:32;;;;;;;3.60;1.40;;;18.40;93.90;;;;;;5047405;28;20420;-74
2022/09/15 09:56:15;;;;;;;3.33;1.30;;;18.40;94.30;;;;;;5042453;28;20441;-74
2022/09/15 09:58:42;;;;;;;1.60;1.27;;;18.50;94.60;;;;;;5046174;28;20418;-77
2022/09/15 10:01:16;;;;;;;2.93;1.60;;;18.20;94.10;;;;;;5038013;28;20432;-74
2022/09/15 10:03:42;;;;;;;1.93;1.13;;;18.10;94.70;;;;;;5042366;28;20429;-74
2022/09/15 10:06:21;;;;;;;1.20;1.00;;;17.90;95.30;;;;;;5040626;28;20510;-72
2022/09/15 10:09:08;;;;;;;1.63;1.00;;;17.70;95.50;;;;;;5041688;28;20423;-74
2022/09/15 10:11:55;;;;;;;2.17;1.10;;;17.40;96.40;;;;;;5042685;28;20562;-73
2022/09/15 10:14:24;;;;;;;1.80;1.20;;;17.20;97.00;;;;;;5039064;28;20542;-73
2022/09/15 10:17:05;;;;;;;2.47;1.33;;;17.10;97.40;;;;;;5040076;28;20514;-73
2022/09/15 10:19:35;;;;;;;2.30;1.20;;;17.20;97.90;;;;;;5042314;28;20565;-72
2022/09/15 10:22:02;;;;;;;3.40;1.30;;;17.40;98.00;;;;;;5045490;28;20457;-73
2022/09/15 10:24:34;;;;;;;2.77;1.30;;;17.30;97.40;;;;;;5041526;28;20494;-73
2022/09/15 10:27:24;;;;;;;1.40;1.13;;;17.30;97.30;;;;;;5049180;28;20431;-71
2022/09/15 10:29:50;;;;;;;1.40;1.10;;;17.00;96.90;;;;;;5042216;28;20454;-72
2022/09/15 10:32:21;;;;;;;2.30;1.20;;;17.00;97.40;;;;;;5047508;28;20964;-73
2022/09/15 10:34:50;;;;;;;2.27;1.00;;;16.90;97.30;;;;;;5051441;28;20239;-72
2022/09/15 10:37:51;;;;;;;2.13;1.10;;;16.80;97.70;;;;;;5046291;28;20929;-71
2022/09/15 10:40:49;;;;;;;1.50;1.03;;;16.90;98.00;;;;;;5053631;28;20426;-72
2022/09/15 10:43:31;;;;;;;2.30;1.53;;;16.60;97.80;;;;;;5041906;28;20873;-72
2022/09/15 10:46:22;;;;;;;3.37;2.00;;;16.20;97.70;;;;;;5043983;28;20473;-72
2022/09/15 10:48:57;;;;;;;4.60;2.77;;;16.10;98.20;;;;;;5045944;28;20839;-74
2022/09/15 10:51:41;;;;;;;4.30;2.57;;;15.90;98.00;;;;;;5046061;28;20417;-73
2022/09/15 10:54:22;;;;;;;3.40;2.77;;;15.60;97.40;;;;;;5042581;28;20461;-73
2022/09/15 10:56:50;;;;;;;8.07;3.97;;;15.50;97.80;;;;;;5044581;28;20505;-74
2022/09/15 10:59:33;;;;;;;8.73;4.70;;;15.40;98.10;;;;;;5046704;28;20427;-73
2022/09/15 11:02:17;;;;;;;6.40;3.90;;;15.40;98.00;;;;;;5048606;28;20537;-73
2022/09/15 11:05:03;;;;;;;6.93;3.93;;;15.40;98.10;;;;;;5042948;28;20483;-74
2022/09/15 11:07:42;;;;;;;6.83;3.43;;;15.40;98.20;;;;;;5049855;28;20800;-72
2022/09/15 11:10:20;;;;;;;7.40;3.43;;;15.30;97.60;;;;;;5049191;28;20419;-73
2022/09/15 11:13:19;;;;;;;4.77;3.30;;;15.40;97.90;;;;;;5049759;28;20420;-72
2022/09/15 11:16:14;;;;;;;5.90;4.20;;;15.30;97.30;;;;;;5044626;28;20494;-74
2022/09/15 11:18:55;;;;;;;7.87;4.50;;;15.40;97.60;;;;;;5048635;28;20463;-73
2022/09/15 11:21:35;;;;;;;5.50;4.10;;;15.50;97.60;;;;;;5049457;28;20431;-72
2022/09/15 11:24:21;;;;;;;7.17;4.40;;;15.70;97.50;;;;;;5047867;28;20978;-73
2022/09/15 11:26:58;;;;;;;11.47;5.90;;;15.70;96.80;;;;;;5049788;28;21117;-72
2022/09/15 11:29:32;;;;;;;5.93;3.83;;;15.80;96.60;;;;;;5043799;28;20414;-72
2022/09/15 11:32:05;;;;;;;6.43;3.97;;;15.80;95.50;;;;;;5050467;28;20438;-72
2022/09/15 11:34:42;;;;;;;6.23;4.27;;;15.70;94.80;;;;;;5053158;28;20563;-71
2022/09/15 11:37:20;;;;;;;8.60;4.43;;;15.70;95.10;;;;;;5042642;28;21031;-72
2022/09/15 11:39:52;;;;;;;7.67;4.60;;;15.90;95.40;;;;;;5036793;28;20514;-72
2022/09/15 11:42:37;;;;;;;6.30;4.27;;;15.60;94.30;;;;;;5050272;28;20528;-73
2022/09/15 11:45:12;;;;;;;6.60;4.63;;;15.70;94.90;;;;;;5037471;28;20878;-71
2022/09/15 11:47:51;;;;;;;8.30;4.77;;;15.70;95.20;;;;;;5045089;28;20420;-72
2022/09/15 11:50:31;;;;;;;9.97;5.03;;;15.60;94.70;;;;;;5043771;28;20442;-72
2022/09/15 11:53:15;;;;;;;7.30;4.70;;;15.50;95.20;;;;;;5040534;28;20491;-70
2022/09/15 11:55:54;;;;;;;7.00;4.47;;;15.30;94.40;;;;;;5041561;28;21058;-71
2022/09/15 11:58:28;;;;;;;11.77;4.33;;;15.30;94.50;;;;;;5044121;28;20432;-70
2022/09/15 12:01:09;;;;;;;10.83;4.97;;;15.30;95.00;;;;;;5039488;28;20440;-71
2022/09/15 12:04:07;;;;;;;7.23;4.30;;;15.50;94.50;;;;;;5044286;28;20538;-73
2022/09/15 12:06:39;;;;;;;7.43;4.73;;;15.40;94.00;;;;;;5035789;28;20943;-71
2022/09/15 12:09:06;;;;;;;6.43;3.90;;;15.30;94.20;;;;;;5048026;28;20945;-71
2022/09/15 12:11:40;;;;;;;8.10;4.87;;;15.10;93.70;;;;;;5041017;28;20428;-72
2022/09/15 12:14:16;;;;;;;5.40;3.93;;;15.10;94.50;;;;;;5041367;28;20934;-72
2022/09/15 12:16:43;;;;;;;6.17;4.40;;;15.10;94.20;;;;;;5041976;28;20822;-73
2022/09/15 12:19:31;;;;;;;6.67;4.40;;;15.20;94.80;;;;;;5040934;28;20479;-71
2022/09/15 12:22:18;;;;;;;9.37;4.63;;;15.20;94.60;;;;;;5047299;28;20424;-72
2022/09/15 12:25:01;;;;;;;7.63;4.37;;;15.30;94.90;;;;;;5035722;28;20472;-70
2022/09/15 12:27:27;;;;;;;10.40;5.07;;;15.40;94.60;;;;;;5038997;28;20485;-72
2022/09/15 12:29:55;;;;;;;8.63;4.20;;;15.50;94.60;;;;;;5047469;28;20435;-72
2022/09/15 12:32:27;;;;;;;6.70;4.37;;;15.60;93.50;;;;;;5041237;28;20420;-71
2022/09/15 12:34:59;;;;;;;7.37;4.30;;;15.70;93.60;;;;;;5036314;28;20476;-73
2022/09/15 12:37:56;;;;;;;8.70;4.37;;;16.00;93.90;;;;;;5046321;28;20430;-73
2022/09/15 12:40:38;;;;;;;9.93;4.43;;;16.10;92.50;;;;;;5045731;28;20421;-74
2022/09/15 12:43:10;;;;;;;8.30;4.10;;;16.30;92.60;;;;;;5051909;28;20427;-73
2022/09/15 12:45:37;;;;;;;10.60;6.33;;;16.60;92.90;;;;;;5047931;28;20474;-73
2022/09/15 12:48:10;;;;;;;6.60;4.07;;;16.80;91.70;;;;;;5049779;28;20414;-72
2022/09/15 12:50:41;;;;;;;6.80;4.30;;;16.60;90.80;;;;;;5039693;28;20421;-73
2022/09/15 12:53:25;;;;;;;8.20;4.30;;;16.40;91.40;;;;;;5046365;28;20449;-73
2022/09/15 12:55:54;;;;;;;7.73;5.00;;;16.50;91.40;;;;;;5039933;28;20474;-71
2022/09/15 12:58:43;;;;;;;11.00;5.23;;;16.70;91.50;;;;;;5042808;28;20442;-71
2022/09/15 13:01:18;;;;;;;8.80;4.90;;;16.70;91.80;;;;;;5047907;28;20433;-71
2022/09/15 13:03:44;;;;;;;9.27;4.80;;;16.60;90.90;;;;;;5049564;28;20447;-72
2022/09/15 13:06:09;;;;;;;7.80;4.97;;;16.90;91.30;;;;;;5040563;28;20423;-73
2022/09/15 13:08:35;;;;;;;7.77;5.30;;;16.80;87.70;;;;;;5045756;28;20446;-71